sensor_id;sensor_type;location;lat;lon;timestamp;temperature;humidity
41922;DHT22;27609;51.002;5.354;2022-10-16T00:02:00;13.80;99.90
41922;DHT22;27609;51.002;5.354;2022-10-16T00:04:26;13.80;99.90
41922;DHT22;27609;51.002;5.354;2022-10-16T00:06:52;14.00;99.90
41922;DHT22;27609;51.002;5.354;2022-10-16T00:09:18;13.80;99.90
41922;DHT22;27609;51.002;5.354;2022-10-16T00:11:43;13.70;99.90
41922;DHT22;27609;51.002;5.354;2022-10-16T00:14:12;13.70;99.90
41922;DHT22;27609;51.002;5.354;2022-10-16T00:16:39;13.70;99.90
41922;DHT22;27609;51.002;5.354;2022-10-16T00:19:05;13.70;99.90
41922;DHT22;27609;51.002;5.354;2022-10-16T00:21:31;13.70;99.90
41922;DHT22;27609;51.002;5.354;2022-10-16T00:24:02;13.70;99.90
41922;DHT22;27609;51.002;5.354;2022-10-16T00:26:29;13.70;99.90
41922;DHT22;27609;51.002;5.354;2022-10-16T00:28:55;13.60;99.90
41922;DHT22;27609;51.002;5.354;2022-10-16T00:31:22;13.60;99.90
41922;DHT22;27609;51.002;5.354;2022-10-16T00:33:49;13.60;99.90
41922;DHT22;27609;51.002;5.354;2022-10-16T00:36:17;13.60;99.90
41922;DHT22;27609;51.002;5.354;2022-10-16T00:38:45;13.70;99.90
41922;DHT22;27609;51.002;5.354;2022-10-16T00:41:13;13.60;99.90
41922;DHT22;27609;51.002;5.354;2022-10-16T00:43:51;13.60;99.90
41922;DHT22;27609;51.002;5.354;2022-10-16T00:46:21;13.50;99.90
41922;DHT22;27609;51.002;5.354;2022-10-16T00:49:17;13.50;99.90
41922;DHT22;27609;51.002;5.354;2022-10-16T00:51:47;13.40;99.90
41922;DHT22;27609;51.002;5.354;2022-10-16T00:54:26;13.40;99.90
41922;DHT22;27609;51.002;5.354;2022-10-16T00:56:54;13.40;99.90
41922;DHT22;27609;51.002;5.354;2022-10-16T00:59:27;13.40;99.90
41922;DHT22;27609;51.002;5.354;2022-10-16T01:01:54;13.40;99.90
41922;DHT22;27609;51.002;5.354;2022-10-16T01:04:20;13.30;99.90
41922;DHT22;27609;51.002;5.354;2022-10-16T01:06:51;13.40;99.90
41922;DHT22;27609;51.002;5.354;2022-10-16T01:12:36;13.30;99.90
41922;DHT22;27609;51.002;5.354;2022-10-16T01:17:48;13.30;99.90
41922;DHT22;27609;51.002;5.354;2022-10-16T01:28:34;13.20;99.90
41922;DHT22;27609;51.002;5.354;2022-10-16T01:31:02;13.10;99.90
41922;DHT22;27609;51.002;5.354;2022-10-16T01:33:33;13.20;99.90
41922;DHT22;27609;51.002;5.354;2022-10-16T01:36:09;13.10;99.90
41922;DHT22;27609;51.002;5.354;2022-10-16T01:38:38;13.10;99.90
41922;DHT22;27609;51.002;5.354;2022-10-16T01:43:43;13.10;99.90
41922;DHT22;27609;51.002;5.354;2022-10-16T01:46:13;13.10;99.90
41922;DHT22;27609;51.002;5.354;2022-10-16T01:48:41;13.10;99.90
41922;DHT22;27609;51.002;5.354;2022-10-16T01:51:10;13.10;99.90
41922;DHT22;27609;51.002;5.354;2022-10-16T01:53:38;13.10;99.90
41922;DHT22;27609;51.002;5.354;2022-10-16T01:56:08;13.10;99.90
41922;DHT22;27609;51.002;5.354;2022-10-16T01:58:37;13.10;99.90
41922;DHT22;27609;51.002;5.354;2022-10-16T02:01:07;13.20;99.90
41922;DHT22;27609;51.002;5.354;2022-10-16T02:03:35;13.20;99.90
41922;DHT22;27609;51.002;5.354;2022-10-16T02:06:02;13.30;99.90
41922;DHT22;27609;51.002;5.354;2022-10-16T02:08:30;13.30;99.90
41922;DHT22;27609;51.002;5.354;2022-10-16T02:10:57;13.20;99.90
41922;DHT22;27609;51.002;5.354;2022-10-16T02:13:32;13.20;99.90
41922;DHT22;27609;51.002;5.354;2022-10-16T02:15:59;13.40;99.90
41922;DHT22;27609;51.002;5.354;2022-10-16T02:18:25;13.10;99.90
41922;DHT22;27609;51.002;5.354;2022-10-16T02:20:58;13.10;99.90
41922;DHT22;27609;51.002;5.354;2022-10-16T02:23:37;13.10;99.90
41922;DHT22;27609;51.002;5.354;2022-10-16T02:26:07;13.10;99.90
41922;DHT22;27609;51.002;5.354;2022-10-16T02:28:42;13.00;99.90
41922;DHT22;27609;51.002;5.354;2022-10-16T02:31:12;13.00;99.90
41922;DHT22;27609;51.002;5.354;2022-10-16T02:33:40;13.00;99.90
41922;DHT22;27609;51.002;5.354;2022-10-16T02:36:08;13.00;99.90
41922;DHT22;27609;51.002;5.354;2022-10-16T02:38:34;13.00;99.90
41922;DHT22;27609;51.002;5.354;2022-10-16T02:41:01;13.00;99.90
41922;DHT22;27609;51.002;5.354;2022-10-16T02:43:27;13.00;99.90
41922;DHT22;27609;51.002;5.354;2022-10-16T02:45:52;13.00;99.90
41922;DHT22;27609;51.002;5.354;2022-10-16T02:48:18;13.00;99.90
41922;DHT22;27609;51.002;5.354;2022-10-16T02:50:44;13.00;99.90
41922;DHT22;27609;51.002;5.354;2022-10-16T02:53:09;13.00;99.90
41922;DHT22;27609;51.002;5.354;2022-10-16T02:55:35;13.00;99.90
41922;DHT22;27609;51.002;5.354;2022-10-16T02:58:02;13.00;99.90
41922;DHT22;27609;51.002;5.354;2022-10-16T03:00:28;13.00;99.90
41922;DHT22;27609;51.002;5.354;2022-10-16T03:02:54;13.00;99.90
41922;DHT22;27609;51.002;5.354;2022-10-16T03:05:20;13.00;99.90
41922;DHT22;27609;51.002;5.354;2022-10-16T03:07:45;13.00;99.90
41922;DHT22;27609;51.002;5.354;2022-10-16T03:10:11;13.10;99.90
41922;DHT22;27609;51.002;5.354;2022-10-16T03:12:37;13.00;99.90
41922;DHT22;27609;51.002;5.354;2022-10-16T03:15:03;13.00;99.90
41922;DHT22;27609;51.002;5.354;2022-10-16T03:17:29;12.90;99.90
41922;DHT22;27609;51.002;5.354;2022-10-16T03:19:55;12.90;99.90
41922;DHT22;27609;51.002;5.354;2022-10-16T03:22:21;13.30;99.90
41922;DHT22;27609;51.002;5.354;2022-10-16T03:24:46;13.00;99.90
41922;DHT22;27609;51.002;5.354;2022-10-16T03:27:12;13.00;99.90
41922;DHT22;27609;51.002;5.354;2022-10-16T03:29:38;13.00;99.90
41922;DHT22;27609;51.002;5.354;2022-10-16T03:32:03;13.00;99.90
41922;DHT22;27609;51.002;5.354;2022-10-16T03:34:29;13.00;99.90
41922;DHT22;27609;51.002;5.354;2022-10-16T03:36:55;13.00;99.90
41922;DHT22;27609;51.002;5.354;2022-10-16T03:39:21;13.00;99.90
41922;DHT22;27609;51.002;5.354;2022-10-16T03:41:46;13.00;99.90
41922;DHT22;27609;51.002;5.354;2022-10-16T03:44:13;13.00;99.90
41922;DHT22;27609;51.002;5.354;2022-10-16T03:46:38;13.00;99.90
41922;DHT22;27609;51.002;5.354;2022-10-16T03:49:04;13.00;99.90
41922;DHT22;27609;51.002;5.354;2022-10-16T03:51:30;13.00;99.90
41922;DHT22;27609;51.002;5.354;2022-10-16T03:53:56;12.90;99.90
41922;DHT22;27609;51.002;5.354;2022-10-16T03:56:21;12.70;99.90
41922;DHT22;27609;51.002;5.354;2022-10-16T03:58:47;13.00;99.90
41922;DHT22;27609;51.002;5.354;2022-10-16T04:01:13;13.00;99.90
41922;DHT22;27609;51.002;5.354;2022-10-16T04:03:39;13.30;99.90
41922;DHT22;27609;51.002;5.354;2022-10-16T04:06:05;13.50;99.90
41922;DHT22;27609;51.002;5.354;2022-10-16T04:08:30;13.00;99.90
41922;DHT22;27609;51.002;5.354;2022-10-16T04:10:59;13.00;99.90
41922;DHT22;27609;51.002;5.354;2022-10-16T04:13:25;13.00;99.90
41922;DHT22;27609;51.002;5.354;2022-10-16T04:15:50;13.00;99.90
41922;DHT22;27609;51.002;5.354;2022-10-16T04:18:16;12.90;99.90
41922;DHT22;27609;51.002;5.354;2022-10-16T04:20:42;12.90;99.90
41922;DHT22;27609;51.002;5.354;2022-10-16T04:23:08;12.40;99.90
41922;DHT22;27609;51.002;5.354;2022-10-16T04:25:33;12.90;99.90
41922;DHT22;27609;51.002;5.354;2022-10-16T04:27:59;12.90;99.90
41922;DHT22;27609;51.002;5.354;2022-10-16T04:30:25;12.90;99.90
41922;DHT22;27609;51.002;5.354;2022-10-16T04:32:52;13.50;99.90
41922;DHT22;27609;51.002;5.354;2022-10-16T04:35:19;12.80;99.90
41922;DHT22;27609;51.002;5.354;2022-10-16T04:37:45;12.80;99.90
41922;DHT22;27609;51.002;5.354;2022-10-16T04:40:11;12.80;99.90
41922;DHT22;27609;51.002;5.354;2022-10-16T04:42:37;12.80;99.90
41922;DHT22;27609;51.002;5.354;2022-10-16T04:45:04;12.80;99.90
41922;DHT22;27609;51.002;5.354;2022-10-16T04:47:31;12.80;99.90
41922;DHT22;27609;51.002;5.354;2022-10-16T04:49:57;12.90;99.90
41922;DHT22;27609;51.002;5.354;2022-10-16T04:52:24;12.90;99.90
41922;DHT22;27609;51.002;5.354;2022-10-16T04:54:50;12.90;99.90
41922;DHT22;27609;51.002;5.354;2022-10-16T04:57:16;12.50;99.90
41922;DHT22;27609;51.002;5.354;2022-10-16T04:59:42;12.90;99.90
41922;DHT22;27609;51.002;5.354;2022-10-16T05:02:08;13.30;99.90
41922;DHT22;27609;51.002;5.354;2022-10-16T05:04:34;12.80;99.90
41922;DHT22;27609;51.002;5.354;2022-10-16T05:06:59;12.60;99.90
41922;DHT22;27609;51.002;5.354;2022-10-16T05:09:25;12.90;99.90
41922;DHT22;27609;51.002;5.354;2022-10-16T05:11:51;12.90;99.90
41922;DHT22;27609;51.002;5.354;2022-10-16T05:14:17;12.90;99.90
41922;DHT22;27609;51.002;5.354;2022-10-16T05:16:42;12.90;99.90
41922;DHT22;27609;51.002;5.354;2022-10-16T05:19:08;12.80;99.90
41922;DHT22;27609;51.002;5.354;2022-10-16T05:21:34;12.90;99.90
41922;DHT22;27609;51.002;5.354;2022-10-16T05:23:59;13.40;99.90
41922;DHT22;27609;51.002;5.354;2022-10-16T05:26:25;12.80;99.90
41922;DHT22;27609;51.002;5.354;2022-10-16T05:28:51;12.80;99.90
41922;DHT22;27609;51.002;5.354;2022-10-16T05:31:16;12.70;99.90
41922;DHT22;27609;51.002;5.354;2022-10-16T05:33:42;12.80;99.90
41922;DHT22;27609;51.002;5.354;2022-10-16T05:36:09;12.70;99.90
41922;DHT22;27609;51.002;5.354;2022-10-16T05:38:36;12.70;99.90
41922;DHT22;27609;51.002;5.354;2022-10-16T05:41:03;12.70;99.90
41922;DHT22;27609;51.002;5.354;2022-10-16T05:43:30;12.70;99.90
41922;DHT22;27609;51.002;5.354;2022-10-16T05:46:05;12.70;99.90
41922;DHT22;27609;51.002;5.354;2022-10-16T05:48:31;12.70;99.90
41922;DHT22;27609;51.002;5.354;2022-10-16T05:51:02;12.70;99.90
41922;DHT22;27609;51.002;5.354;2022-10-16T05:53:29;12.70;99.90
41922;DHT22;27609;51.002;5.354;2022-10-16T05:55:55;12.70;99.90
41922;DHT22;27609;51.002;5.354;2022-10-16T05:58:22;12.60;99.90
41922;DHT22;27609;51.002;5.354;2022-10-16T06:00:58;12.60;99.90
41922;DHT22;27609;51.002;5.354;2022-10-16T06:03:24;12.70;99.90
41922;DHT22;27609;51.002;5.354;2022-10-16T06:05:50;12.70;99.90
41922;DHT22;27609;51.002;5.354;2022-10-16T06:08:17;12.70;99.90
41922;DHT22;27609;51.002;5.354;2022-10-16T06:10:44;12.60;99.90
41922;DHT22;27609;51.002;5.354;2022-10-16T06:13:10;12.60;99.90
41922;DHT22;27609;51.002;5.354;2022-10-16T06:15:37;12.60;99.90
41922;DHT22;27609;51.002;5.354;2022-10-16T06:18:04;13.10;99.90
41922;DHT22;27609;51.002;5.354;2022-10-16T06:20:30;12.60;99.90
41922;DHT22;27609;51.002;5.354;2022-10-16T06:22:56;12.60;99.90
41922;DHT22;27609;51.002;5.354;2022-10-16T06:25:22;12.50;99.90
41922;DHT22;27609;51.002;5.354;2022-10-16T06:27:48;12.60;99.90
41922;DHT22;27609;51.002;5.354;2022-10-16T06:30:14;12.60;99.90
41922;DHT22;27609;51.002;5.354;2022-10-16T06:32:39;13.30;99.90
41922;DHT22;27609;51.002;5.354;2022-10-16T06:35:05;12.60;99.90
41922;DHT22;27609;51.002;5.354;2022-10-16T06:37:31;12.70;99.90
41922;DHT22;27609;51.002;5.354;2022-10-16T06:39:57;12.70;99.90
41922;DHT22;27609;51.002;5.354;2022-10-16T06:42:23;12.60;99.90
41922;DHT22;27609;51.002;5.354;2022-10-16T06:44:48;12.60;99.90
41922;DHT22;27609;51.002;5.354;2022-10-16T06:47:14;12.60;99.90
41922;DHT22;27609;51.002;5.354;2022-10-16T06:49:40;12.70;99.90
41922;DHT22;27609;51.002;5.354;2022-10-16T06:52:05;12.60;99.90
41922;DHT22;27609;51.002;5.354;2022-10-16T06:54:31;12.60;99.90
41922;DHT22;27609;51.002;5.354;2022-10-16T06:56:57;12.60;99.90
41922;DHT22;27609;51.002;5.354;2022-10-16T06:59:22;13.00;99.90
41922;DHT22;27609;51.002;5.354;2022-10-16T07:01:48;13.50;99.90
41922;DHT22;27609;51.002;5.354;2022-10-16T07:04:14;14.00;99.90
41922;DHT22;27609;51.002;5.354;2022-10-16T07:06:40;14.60;99.90
41922;DHT22;27609;51.002;5.354;2022-10-16T07:09:09;14.90;99.90
41922;DHT22;27609;51.002;5.354;2022-10-16T07:11:36;15.00;99.90
41922;DHT22;27609;51.002;5.354;2022-10-16T07:14:02;15.00;99.90
41922;DHT22;27609;51.002;5.354;2022-10-16T07:16:30;15.50;99.90
41922;DHT22;27609;51.002;5.354;2022-10-16T07:19:01;15.90;99.90
41922;DHT22;27609;51.002;5.354;2022-10-16T07:21:32;15.80;99.90
41922;DHT22;27609;51.002;5.354;2022-10-16T07:24:01;16.40;99.90
41922;DHT22;27609;51.002;5.354;2022-10-16T07:26:28;16.70;99.90
41922;DHT22;27609;51.002;5.354;2022-10-16T07:28:55;17.00;99.90
41922;DHT22;27609;51.002;5.354;2022-10-16T07:31:22;17.30;99.90
41922;DHT22;27609;51.002;5.354;2022-10-16T07:33:49;17.50;99.90
41922;DHT22;27609;51.002;5.354;2022-10-16T07:36:16;17.40;99.90
41922;DHT22;27609;51.002;5.354;2022-10-16T07:38:43;17.40;99.90
41922;DHT22;27609;51.002;5.354;2022-10-16T07:41:12;17.40;99.90
41922;DHT22;27609;51.002;5.354;2022-10-16T07:43:38;17.60;99.90
41922;DHT22;27609;51.002;5.354;2022-10-16T07:46:04;17.70;99.90
41922;DHT22;27609;51.002;5.354;2022-10-16T07:48:32;18.20;99.90
41922;DHT22;27609;51.002;5.354;2022-10-16T07:50:59;18.70;99.90
41922;DHT22;27609;51.002;5.354;2022-10-16T07:53:25;18.70;99.90
41922;DHT22;27609;51.002;5.354;2022-10-16T07:55:51;18.70;99.90
41922;DHT22;27609;51.002;5.354;2022-10-16T07:58:17;18.90;99.90
41922;DHT22;27609;51.002;5.354;2022-10-16T08:00:42;19.20;99.90
41922;DHT22;27609;51.002;5.354;2022-10-16T08:03:08;19.70;99.90
41922;DHT22;27609;51.002;5.354;2022-10-16T08:05:34;19.80;99.90
41922;DHT22;27609;51.002;5.354;2022-10-16T08:08:02;19.40;99.90
41922;DHT22;27609;51.002;5.354;2022-10-16T08:10:28;20.10;99.90
41922;DHT22;27609;51.002;5.354;2022-10-16T08:13:03;19.80;99.90
41922;DHT22;27609;51.002;5.354;2022-10-16T08:15:36;19.50;99.90
41922;DHT22;27609;51.002;5.354;2022-10-16T08:18:18;19.20;99.90
41922;DHT22;27609;51.002;5.354;2022-10-16T08:20:44;19.40;99.90
41922;DHT22;27609;51.002;5.354;2022-10-16T08:23:12;20.00;99.90
41922;DHT22;27609;51.002;5.354;2022-10-16T08:25:46;20.80;99.90
41922;DHT22;27609;51.002;5.354;2022-10-16T08:28:12;21.00;99.90
41922;DHT22;27609;51.002;5.354;2022-10-16T08:30:41;22.00;99.90
41922;DHT22;27609;51.002;5.354;2022-10-16T08:33:12;22.10;99.90
41922;DHT22;27609;51.002;5.354;2022-10-16T08:35:38;21.50;99.90
41922;DHT22;27609;51.002;5.354;2022-10-16T08:38:24;21.40;99.90
41922;DHT22;27609;51.002;5.354;2022-10-16T08:47:17;22.50;99.90
41922;DHT22;27609;51.002;5.354;2022-10-16T08:52:43;21.40;99.90
41922;DHT22;27609;51.002;5.354;2022-10-16T08:58:21;21.80;99.90
41922;DHT22;27609;51.002;5.354;2022-10-16T09:00:53;22.30;99.90
41922;DHT22;27609;51.002;5.354;2022-10-16T09:06:35;21.90;99.90
41922;DHT22;27609;51.002;5.354;2022-10-16T09:09:26;22.70;99.90
41922;DHT22;27609;51.002;5.354;2022-10-16T09:12:16;23.60;99.90
41922;DHT22;27609;51.002;5.354;2022-10-16T09:15:14;24.40;99.90
41922;DHT22;27609;51.002;5.354;2022-10-16T09:20:45;23.50;99.90
41922;DHT22;27609;51.002;5.354;2022-10-16T09:23:17;23.40;99.90
41922;DHT22;27609;51.002;5.354;2022-10-16T09:25:46;23.10;99.90
41922;DHT22;27609;51.002;5.354;2022-10-16T09:28:13;23.90;99.90
41922;DHT22;27609;51.002;5.354;2022-10-16T09:30:40;25.20;99.90
41922;DHT22;27609;51.002;5.354;2022-10-16T09:33:06;25.30;99.90
41922;DHT22;27609;51.002;5.354;2022-10-16T09:36:02;25.10;99.90
41922;DHT22;27609;51.002;5.354;2022-10-16T09:38:33;23.20;99.90
41922;DHT22;27609;51.002;5.354;2022-10-16T09:41:03;24.50;99.90
41922;DHT22;27609;51.002;5.354;2022-10-16T09:43:55;24.10;99.90
41922;DHT22;27609;51.002;5.354;2022-10-16T09:46:29;25.50;99.90
41922;DHT22;27609;51.002;5.354;2022-10-16T09:49:22;26.60;99.90
41922;DHT22;27609;51.002;5.354;2022-10-16T09:52:12;25.10;99.90
41922;DHT22;27609;51.002;5.354;2022-10-16T09:54:48;23.40;99.90
41922;DHT22;27609;51.002;5.354;2022-10-16T09:57:14;23.40;99.90
41922;DHT22;27609;51.002;5.354;2022-10-16T09:59:51;23.90;99.90
41922;DHT22;27609;51.002;5.354;2022-10-16T10:02:20;23.40;99.90
41922;DHT22;27609;51.002;5.354;2022-10-16T10:04:52;24.10;99.90
41922;DHT22;27609;51.002;5.354;2022-10-16T10:07:30;24.90;99.90
41922;DHT22;27609;51.002;5.354;2022-10-16T10:09:59;26.10;99.90
41922;DHT22;27609;51.002;5.354;2022-10-16T10:12:31;28.20;97.40
41922;DHT22;27609;51.002;5.354;2022-10-16T10:15:10;26.40;99.90
41922;DHT22;27609;51.002;5.354;2022-10-16T10:20:24;26.50;99.90
41922;DHT22;27609;51.002;5.354;2022-10-16T10:22:50;25.80;99.90
41922;DHT22;27609;51.002;5.354;2022-10-16T10:57:50;25.70;99.10
41922;DHT22;27609;51.002;5.354;2022-10-16T11:00:42;25.40;99.90
41922;DHT22;27609;51.002;5.354;2022-10-16T11:03:21;26.10;99.90
41922;DHT22;27609;51.002;5.354;2022-10-16T11:06:00;28.50;95.90
41922;DHT22;27609;51.002;5.354;2022-10-16T11:08:53;29.80;91.00
41922;DHT22;27609;51.002;5.354;2022-10-16T11:14:11;26.50;96.10
41922;DHT22;27609;51.002;5.354;2022-10-16T11:19:31;29.80;93.10
41922;DHT22;27609;51.002;5.354;2022-10-16T11:22:12;29.70;90.20
41922;DHT22;27609;51.002;5.354;2022-10-16T11:27:40;25.00;98.30
41922;DHT22;27609;51.002;5.354;2022-10-16T11:30:20;23.80;99.90
41922;DHT22;27609;51.002;5.354;2022-10-16T11:35:25;24.30;99.90
41922;DHT22;27609;51.002;5.354;2022-10-16T11:37:56;25.80;98.10
41922;DHT22;27609;51.002;5.354;2022-10-16T11:40:32;26.80;98.30
41922;DHT22;27609;51.002;5.354;2022-10-16T11:43:10;28.30;97.20
41922;DHT22;27609;51.002;5.354;2022-10-16T11:45:45;27.20;95.30
41922;DHT22;27609;51.002;5.354;2022-10-16T11:51:17;24.70;99.90
41922;DHT22;27609;51.002;5.354;2022-10-16T11:56:19;24.30;99.90
41922;DHT22;27609;51.002;5.354;2022-10-16T12:01:47;25.00;99.90
41922;DHT22;27609;51.002;5.354;2022-10-16T12:04:34;25.40;99.10
41922;DHT22;27609;51.002;5.354;2022-10-16T12:07:24;24.40;99.90
41922;DHT22;27609;51.002;5.354;2022-10-16T12:09:52;24.00;99.90
41922;DHT22;27609;51.002;5.354;2022-10-16T12:15:01;22.60;99.90
41922;DHT22;27609;51.002;5.354;2022-10-16T12:17:36;22.30;99.90
41922;DHT22;27609;51.002;5.354;2022-10-16T12:20:23;22.10;99.90
41922;DHT22;27609;51.002;5.354;2022-10-16T12:22:55;22.00;99.90
41922;DHT22;27609;51.002;5.354;2022-10-16T12:25:39;21.80;99.90
41922;DHT22;27609;51.002;5.354;2022-10-16T12:30:41;21.70;99.90
41922;DHT22;27609;51.002;5.354;2022-10-16T12:33:28;21.90;99.90
41922;DHT22;27609;51.002;5.354;2022-10-16T12:35:55;22.10;99.90
41922;DHT22;27609;51.002;5.354;2022-10-16T12:38:45;22.10;99.90
41922;DHT22;27609;51.002;5.354;2022-10-16T12:41:11;22.30;99.90
41922;DHT22;27609;51.002;5.354;2022-10-16T12:43:41;22.40;99.90
41922;DHT22;27609;51.002;5.354;2022-10-16T12:48:41;23.00;99.90
41922;DHT22;27609;51.002;5.354;2022-10-16T12:54:15;23.00;99.90
41922;DHT22;27609;51.002;5.354;2022-10-16T12:59:55;22.40;99.90
41922;DHT22;27609;51.002;5.354;2022-10-16T13:27:46;22.20;99.90
41922;DHT22;27609;51.002;5.354;2022-10-16T13:30:41;22.10;99.90
41922;DHT22;27609;51.002;5.354;2022-10-16T13:33:17;22.00;99.90
41922;DHT22;27609;51.002;5.354;2022-10-16T13:35:54;21.80;99.90
41922;DHT22;27609;51.002;5.354;2022-10-16T13:38:26;21.60;99.90
41922;DHT22;27609;51.002;5.354;2022-10-16T13:40:59;21.60;99.90
41922;DHT22;27609;51.002;5.354;2022-10-16T13:43:36;21.40;99.90
41922;DHT22;27609;51.002;5.354;2022-10-16T13:46:06;21.80;99.90
41922;DHT22;27609;51.002;5.354;2022-10-16T13:48:33;21.90;99.90
41922;DHT22;27609;51.002;5.354;2022-10-16T13:51:15;22.10;99.90
41922;DHT22;27609;51.002;5.354;2022-10-16T13:53:41;22.10;99.90
41922;DHT22;27609;51.002;5.354;2022-10-16T13:56:11;22.20;99.90
41922;DHT22;27609;51.002;5.354;2022-10-16T13:58:37;22.20;99.90
41922;DHT22;27609;51.002;5.354;2022-10-16T14:01:05;22.10;99.90
41922;DHT22;27609;51.002;5.354;2022-10-16T14:03:33;22.00;99.90
41922;DHT22;27609;51.002;5.354;2022-10-16T14:06:02;22.10;99.90
41922;DHT22;27609;51.002;5.354;2022-10-16T14:08:29;22.10;99.90
41922;DHT22;27609;51.002;5.354;2022-10-16T14:11:00;22.30;99.90
41922;DHT22;27609;51.002;5.354;2022-10-16T14:13:37;22.30;99.90
41922;DHT22;27609;51.002;5.354;2022-10-16T14:16:09;22.50;99.90
41922;DHT22;27609;51.002;5.354;2022-10-16T14:18:38;22.70;99.90
41922;DHT22;27609;51.002;5.354;2022-10-16T14:21:06;22.60;99.90
41922;DHT22;27609;51.002;5.354;2022-10-16T14:23:36;22.60;99.90
41922;DHT22;27609;51.002;5.354;2022-10-16T14:26:23;22.50;99.90
41922;DHT22;27609;51.002;5.354;2022-10-16T14:29:08;22.50;99.90
41922;DHT22;27609;51.002;5.354;2022-10-16T14:31:34;22.70;99.90
41922;DHT22;27609;51.002;5.354;2022-10-16T14:34:02;22.60;99.90
41922;DHT22;27609;51.002;5.354;2022-10-16T14:36:29;22.50;99.90
41922;DHT22;27609;51.002;5.354;2022-10-16T14:39:17;22.70;99.90
41922;DHT22;27609;51.002;5.354;2022-10-16T14:41:47;22.50;99.90
41922;DHT22;27609;51.002;5.354;2022-10-16T14:44:13;22.30;99.90
41922;DHT22;27609;51.002;5.354;2022-10-16T14:46:41;22.30;99.90
41922;DHT22;27609;51.002;5.354;2022-10-16T14:51:37;22.20;99.90
41922;DHT22;27609;51.002;5.354;2022-10-16T14:54:03;22.00;99.90
41922;DHT22;27609;51.002;5.354;2022-10-16T14:56:34;21.90;99.90
41922;DHT22;27609;51.002;5.354;2022-10-16T14:59:02;22.00;99.90
41922;DHT22;27609;51.002;5.354;2022-10-16T15:01:27;22.00;99.90
41922;DHT22;27609;51.002;5.354;2022-10-16T15:03:53;21.90;99.90
41922;DHT22;27609;51.002;5.354;2022-10-16T15:06:20;21.90;99.90
41922;DHT22;27609;51.002;5.354;2022-10-16T15:08:47;21.90;99.90
41922;DHT22;27609;51.002;5.354;2022-10-16T15:11:17;22.10;99.90
41922;DHT22;27609;51.002;5.354;2022-10-16T15:13:44;22.10;99.90
41922;DHT22;27609;51.002;5.354;2022-10-16T15:16:16;22.00;99.90
41922;DHT22;27609;51.002;5.354;2022-10-16T15:18:42;22.00;99.90
41922;DHT22;27609;51.002;5.354;2022-10-16T15:21:13;21.90;99.90
41922;DHT22;27609;51.002;5.354;2022-10-16T15:23:44;21.80;99.90
41922;DHT22;27609;51.002;5.354;2022-10-16T15:26:10;21.80;99.90
41922;DHT22;27609;51.002;5.354;2022-10-16T15:28:35;21.80;99.90
41922;DHT22;27609;51.002;5.354;2022-10-16T15:31:04;21.70;99.90
41922;DHT22;27609;51.002;5.354;2022-10-16T15:33:30;21.60;99.90
41922;DHT22;27609;51.002;5.354;2022-10-16T15:35:59;21.50;99.90
41922;DHT22;27609;51.002;5.354;2022-10-16T15:38:26;21.30;99.90
41922;DHT22;27609;51.002;5.354;2022-10-16T15:40:52;21.20;99.90
41922;DHT22;27609;51.002;5.354;2022-10-16T15:43:18;21.00;99.90
41922;DHT22;27609;51.002;5.354;2022-10-16T15:45:46;20.90;99.90
41922;DHT22;27609;51.002;5.354;2022-10-16T15:48:17;20.90;99.90
41922;DHT22;27609;51.002;5.354;2022-10-16T15:50:43;20.80;99.90
41922;DHT22;27609;51.002;5.354;2022-10-16T15:53:08;20.70;99.90
41922;DHT22;27609;51.002;5.354;2022-10-16T15:55:34;20.60;99.90
41922;DHT22;27609;51.002;5.354;2022-10-16T15:58:03;20.40;99.90
41922;DHT22;27609;51.002;5.354;2022-10-16T16:00:29;20.40;99.90
41922;DHT22;27609;51.002;5.354;2022-10-16T16:02:54;20.30;99.90
41922;DHT22;27609;51.002;5.354;2022-10-16T16:05:21;20.20;99.90
41922;DHT22;27609;51.002;5.354;2022-10-16T16:07:47;20.00;99.90
41922;DHT22;27609;51.002;5.354;2022-10-16T16:10:13;19.90;99.90
41922;DHT22;27609;51.002;5.354;2022-10-16T16:12:39;19.90;99.90
41922;DHT22;27609;51.002;5.354;2022-10-16T16:15:06;19.80;99.90
41922;DHT22;27609;51.002;5.354;2022-10-16T16:17:33;19.70;99.90
41922;DHT22;27609;51.002;5.354;2022-10-16T16:19:59;19.60;99.90
41922;DHT22;27609;51.002;5.354;2022-10-16T16:22:25;19.60;99.90
41922;DHT22;27609;51.002;5.354;2022-10-16T16:24:51;19.30;99.90
41922;DHT22;27609;51.002;5.354;2022-10-16T16:27:16;19.50;99.90
41922;DHT22;27609;51.002;5.354;2022-10-16T16:29:42;19.40;99.90
41922;DHT22;27609;51.002;5.354;2022-10-16T16:32:08;19.40;99.90
41922;DHT22;27609;51.002;5.354;2022-10-16T16:34:34;19.30;99.90
41922;DHT22;27609;51.002;5.354;2022-10-16T16:37:00;19.20;99.90
41922;DHT22;27609;51.002;5.354;2022-10-16T16:39:26;19.10;99.90
41922;DHT22;27609;51.002;5.354;2022-10-16T16:41:52;19.10;99.90
41922;DHT22;27609;51.002;5.354;2022-10-16T16:44:18;19.00;99.90
41922;DHT22;27609;51.002;5.354;2022-10-16T16:46:44;18.90;99.90
41922;DHT22;27609;51.002;5.354;2022-10-16T16:49:12;18.60;99.90
41922;DHT22;27609;51.002;5.354;2022-10-16T16:51:39;18.90;99.90
41922;DHT22;27609;51.002;5.354;2022-10-16T16:54:05;18.90;99.90
41922;DHT22;27609;51.002;5.354;2022-10-16T16:56:32;18.80;99.90
41922;DHT22;27609;51.002;5.354;2022-10-16T16:58:58;18.70;99.90
41922;DHT22;27609;51.002;5.354;2022-10-16T17:01:25;18.70;99.90
41922;DHT22;27609;51.002;5.354;2022-10-16T17:03:53;18.60;99.90
41922;DHT22;27609;51.002;5.354;2022-10-16T17:06:21;18.60;99.90
41922;DHT22;27609;51.002;5.354;2022-10-16T17:08:48;18.50;99.90
41922;DHT22;27609;51.002;5.354;2022-10-16T17:11:23;18.40;99.90
41922;DHT22;27609;51.002;5.354;2022-10-16T17:13:50;18.40;99.90
41922;DHT22;27609;51.002;5.354;2022-10-16T17:16:16;18.40;99.90
41922;DHT22;27609;51.002;5.354;2022-10-16T17:18:42;18.40;99.90
41922;DHT22;27609;51.002;5.354;2022-10-16T17:21:10;18.30;99.90
41922;DHT22;27609;51.002;5.354;2022-10-16T17:23:36;18.30;99.90
41922;DHT22;27609;51.002;5.354;2022-10-16T17:26:08;18.20;99.90
41922;DHT22;27609;51.002;5.354;2022-10-16T17:28:34;18.20;99.90
41922;DHT22;27609;51.002;5.354;2022-10-16T17:31:10;18.10;99.90
41922;DHT22;27609;51.002;5.354;2022-10-16T17:33:36;18.10;99.90
41922;DHT22;27609;51.002;5.354;2022-10-16T17:36:03;18.00;99.90
41922;DHT22;27609;51.002;5.354;2022-10-16T17:38:28;18.10;99.90
41922;DHT22;27609;51.002;5.354;2022-10-16T17:40:54;17.90;99.90
41922;DHT22;27609;51.002;5.354;2022-10-16T17:43:20;17.80;99.90
41922;DHT22;27609;51.002;5.354;2022-10-16T17:45:45;17.70;99.90
41922;DHT22;27609;51.002;5.354;2022-10-16T17:48:12;17.80;99.90
41922;DHT22;27609;51.002;5.354;2022-10-16T17:50:42;17.90;99.90
41922;DHT22;27609;51.002;5.354;2022-10-16T17:53:08;18.00;99.90
41922;DHT22;27609;51.002;5.354;2022-10-16T17:55:38;18.00;99.90